Time;durP1;ratioP1;P1;durP2;ratioP2;P2;SDS_P1;SDS_P2;PMS_P1;PMS_P2;Temp;Humidity;BMP_temperature;BMP_pressure;BME280_temperature;BME280_humidity;BME280_pressure;Samples;Min_cycle;Max_cycle;Signal;HPM_P1;HPM_P2
2021/01/21 00:02:04;;;;;;;26.37;14.35;;;;;;;4.77;67.93;99181.96;2469372;80;25655;-80
2021/01/21 00:05:26;;;;;;;27.05;14.45;;;;;;;4.76;67.91;99177.61;2465354;80;25767;-79
2021/01/21 00:08:47;;;;;;;24.92;13.78;;;;;;;4.74;67.89;99177.16;2468017;78;25651;-80
2021/01/21 00:12:12;;;;;;;24.25;14.98;;;;;;;4.73;67.87;99178.00;2468962;80;25489;-80
2021/01/21 00:15:34;;;;;;;26.42;14.35;;;;;;;4.72;67.86;99169.80;2468630;80;25656;-80
2021/01/21 00:19:04;;;;;;;26.73;13.88;;;;;;;4.71;67.80;99169.75;2468502;80;25736;-78
2021/01/21 00:22:26;;;;;;;24.63;14.30;;;;;;;4.70;67.81;99172.75;2464576;79;26124;-80
2021/01/21 00:25:50;;;;;;;28.12;14.07;;;;;;;4.69;67.78;99164.55;2465920;80;25648;-79
2021/01/21 00:29:17;;;;;;;29.63;14.20;;;;;;;4.68;67.76;99165.37;2467343;80;25751;-80
2021/01/21 00:32:39;;;;;;;33.60;16.15;;;;;;;4.68;67.74;99168.38;2466782;80;26848;-80
2021/01/21 00:36:01;;;;;;;30.15;16.17;;;;;;;4.66;67.71;99165.77;2467846;80;25558;-80
2021/01/21 00:39:23;;;;;;;26.20;13.88;;;;;;;4.66;67.69;99163.60;2468943;80;25755;-81
2021/01/21 00:42:45;;;;;;;32.70;16.52;;;;;;;4.65;67.67;99165.28;2469149;80;25542;-79
2021/01/21 00:46:08;;;;;;;33.70;17.12;;;;;;;4.65;67.67;99168.28;2469362;80;25480;-81
2021/01/21 00:49:29;;;;;;;39.85;16.80;;;;;;;4.63;67.64;99166.97;2468498;80;26010;-78
2021/01/21 00:52:51;;;;;;;28.92;15.83;;;;;;;4.62;67.63;99165.19;2470493;80;25626;-81
2021/01/21 00:56:34;;;;;;;30.65;17.23;;;;;;;4.62;67.61;99170.35;2437410;80;25673;-80
2021/01/21 00:59:52;;;;;;;27.93;16.32;;;;;;;4.62;67.58;99161.73;2458906;80;25624;-80
2021/01/21 01:03:20;;;;;;;27.00;15.10;;;;;;;4.61;67.58;99169.91;2469498;80;25732;-80
2021/01/21 01:06:42;;;;;;;29.02;15.40;;;;;;;4.59;67.55;99175.46;2437850;80;25626;-80
2021/01/21 01:10:05;;;;;;;30.50;16.17;;;;;;;4.58;67.55;99172.40;2470141;80;25789;-80
2021/01/21 01:13:27;;;;;;;30.77;16.17;;;;;;;4.57;67.53;99171.95;2470407;80;25412;-80
2021/01/21 01:16:55;;;;;;;36.40;17.90;;;;;;;4.56;67.51;99171.50;2467461;80;25593;-80
2021/01/21 01:20:17;;;;;;;31.12;15.20;;;;;;;4.55;67.51;99168.44;2468700;80;25791;-79
2021/01/21 01:23:38;;;;;;;30.12;15.38;;;;;;;4.54;67.50;99167.12;2469607;80;26208;-80
2021/01/21 01:27:00;;;;;;;39.20;17.73;;;;;;;4.52;67.48;99170.93;2469878;80;25639;-80
2021/01/21 01:30:23;;;;;;;34.58;18.05;;;;;;;4.51;67.48;99170.48;2468703;80;25585;-81
2021/01/21 01:33:46;;;;;;;28.57;16.70;;;;;;;4.49;67.47;99161.84;2468131;80;25675;-80
2021/01/21 01:37:20;;;;;;;35.30;17.50;;;;;;;4.49;67.45;99169.16;2468675;80;25657;-78
2021/01/21 01:40:55;;;;;;;36.28;18.45;;;;;;;4.47;67.43;99160.91;2468102;80;25372;-80
2021/01/21 01:44:17;;;;;;;29.72;16.25;;;;;;;4.46;67.42;99164.33;2467257;80;25676;-80
2021/01/21 01:47:47;;;;;;;36.33;17.57;;;;;;;4.45;67.42;99159.98;2467435;80;25644;-80
2021/01/21 01:51:13;;;;;;;33.78;16.40;;;;;;;4.42;67.42;99163.37;2326694;84;25781;-79
2021/01/21 01:54:38;;;;;;;32.70;16.85;;;;;;;4.41;67.38;99159.02;2326569;84;25688;-80
2021/01/21 01:58:02;;;;;;;31.70;17.23;;;;;;;4.40;67.38;99164.15;2327689;84;25756;-79
2021/01/21 02:01:26;;;;;;;33.73;17.25;;;;;;;4.40;67.38;99162.86;2325755;84;25953;-79
2021/01/21 02:04:49;;;;;;;27.00;15.95;;;;;;;4.38;67.39;99157.64;2327034;84;25434;-80
2021/01/21 02:08:18;;;;;;;32.40;16.93;;;;;;;4.37;67.38;99157.19;2323842;84;25622;-79
2021/01/21 02:12:09;;;;;;;35.60;17.62;;;;;;;4.35;67.37;99154.97;2325331;84;25763;-79
2021/01/21 02:15:46;;;;;;;27.45;16.07;;;;;;;4.34;67.35;99167.42;2327288;82;25858;-80
2021/01/21 02:19:36;;;;;;;37.30;18.30;;;;;;;4.34;67.33;99165.26;2328383;84;26098;-78
2021/01/21 02:23:54;;;;;;;32.63;17.65;;;;;;;4.32;67.34;99156.59;2323006;84;25857;-78
2021/01/21 02:27:38;;;;;;;31.43;16.57;;;;;;;4.36;67.35;99155.87;2533799;77;25510;-79
2021/01/21 02:31:06;;;;;;;31.55;17.17;;;;;;;4.29;67.34;99156.50;2502553;79;25988;-78
2021/01/21 02:34:58;;;;;;;29.25;17.32;;;;;;;4.28;67.33;99162.08;2473061;79;26334;-79
2021/01/21 02:38:30;;;;;;;31.87;17.12;;;;;;;4.28;67.32;99157.34;2499319;79;25617;-80
2021/01/21 02:41:56;;;;;;;33.80;17.85;;;;;;;4.25;67.32;99152.95;2501059;78;25649;-78
2021/01/21 02:45:17;;;;;;;34.90;17.25;;;;;;;4.24;67.31;99148.64;2501734;79;25840;-79
2021/01/21 02:48:58;;;;;;;33.48;18.67;;;;;;;4.23;67.32;99152.92;2501665;78;26055;-79
2021/01/21 02:52:45;;;;;;;33.98;18.55;;;;;;;4.22;67.30;99147.73;2476286;79;25653;-78
2021/01/21 02:56:17;;;;;;;37.45;18.42;;;;;;;4.23;67.32;99150.77;2500920;79;25382;-79
2021/01/21 02:59:42;;;;;;;32.45;19.10;;;;;;;4.22;67.30;99151.61;2501861;79;25683;-78
2021/01/21 03:03:13;;;;;;;36.38;18.35;;;;;;;4.21;67.29;99151.12;2470315;79;25632;-79
2021/01/21 03:06:53;;;;;;;32.33;17.30;;;;;;;4.19;67.28;99136.91;2409881;81;25574;-79
2021/01/21 03:10:22;;;;;;;38.15;18.92;;;;;;;4.18;67.30;99144.59;2405782;81;25564;-79
2021/01/21 03:13:45;;;;;;;36.80;18.75;;;;;;;4.17;67.29;99148.88;2406122;81;25543;-79
2021/01/21 03:17:10;;;;;;;34.00;18.48;;;;;;;4.16;67.28;99143.27;2409185;82;25603;-79
2021/01/21 03:20:34;;;;;;;36.45;19.98;;;;;;;4.16;67.29;99141.11;2407547;81;25527;-79
2021/01/21 03:23:56;;;;;;;37.58;20.77;;;;;;;4.16;67.26;99139.81;2410459;81;25615;-79
2021/01/21 03:27:20;;;;;;;42.53;19.85;;;;;;;4.14;67.24;99135.88;2416216;80;25948;-79
2021/01/21 03:30:42;;;;;;;36.42;20.95;;;;;;;4.14;67.24;99138.47;2370407;81;25592;-79
2021/01/21 03:34:15;;;;;;;34.73;19.02;;;;;;;4.12;67.23;99141.44;2423301;80;25596;-79
2021/01/21 03:37:39;;;;;;;37.65;20.17;;;;;;;4.13;67.24;99146.17;2423018;80;25397;-80
2021/01/21 03:41:05;;;;;;;33.75;19.75;;;;;;;4.11;67.23;99147.81;2421984;81;25630;-79
2021/01/21 03:44:41;;;;;;;34.95;19.87;;;;;;;4.11;67.21;99143.53;2422997;80;25615;-80
2021/01/21 03:48:07;;;;;;;40.43;20.52;;;;;;;4.09;67.21;99145.21;2424887;81;25360;-79
2021/01/21 03:51:38;;;;;;;40.12;20.77;;;;;;;4.09;67.19;99145.63;2418027;80;25469;-79
2021/01/21 03:55:08;;;;;;;37.90;21.02;;;;;;;4.08;67.19;99152.46;2399840;81;25789;-79
2021/01/21 03:58:30;;;;;;;34.48;19.60;;;;;;;4.07;67.19;99142.98;2380151;81;25815;-78
2021/01/21 04:02:17;;;;;;;36.75;20.10;;;;;;;4.06;67.18;99154.56;2401893;81;25504;-79
2021/01/21 04:05:41;;;;;;;35.45;19.87;;;;;;;4.05;67.18;99148.92;2394276;81;25694;-79
2021/01/21 04:09:15;;;;;;;44.42;21.87;;;;;;;4.04;67.17;99153.20;2390080;81;25529;-79
2021/01/21 04:12:55;;;;;;;39.70;21.33;;;;;;;4.03;67.17;99154.92;2389097;82;25467;-80
2021/01/21 04:16:24;;;;;;;36.68;20.40;;;;;;;4.01;67.15;99155.27;2373766;81;25532;-80
2021/01/21 04:19:53;;;;;;;37.28;19.32;;;;;;;4.01;67.14;99150.53;2387465;81;25896;-80
2021/01/21 04:23:27;;;;;;;37.85;20.62;;;;;;;3.99;67.14;99146.64;2390187;81;25572;-80
2021/01/21 04:26:49;;;;;;;40.30;21.48;;;;;;;3.99;67.14;99145.77;2390893;82;25539;-80
2021/01/21 04:30:14;;;;;;;35.85;20.20;;;;;;;3.98;67.14;99140.13;2389158;82;25501;-79
2021/01/21 04:33:36;;;;;;;37.98;20.27;;;;;;;3.96;67.12;99143.09;2378089;81;26025;-80
2021/01/21 04:36:58;;;;;;;35.50;18.98;;;;;;;3.95;67.10;99138.36;2375261;81;25620;-79
2021/01/21 04:40:22;;;;;;;37.75;19.62;;;;;;;3.95;67.12;99140.06;2292222;84;25658;-79
2021/01/21 04:43:46;;;;;;;37.65;20.35;;;;;;;3.94;67.10;99137.88;2292740;85;25623;-80
2021/01/21 04:47:10;;;;;;;33.25;20.05;;;;;;;3.93;67.10;99140.42;2291968;84;25466;-80
2021/01/21 04:50:37;;;;;;;34.70;20.45;;;;;;;3.91;67.09;99135.20;2289655;84;25740;-80
2021/01/21 04:54:02;;;;;;;34.18;19.90;;;;;;;3.91;67.08;99139.06;2288402;83;26223;-80
2021/01/21 04:58:10;;;;;;;37.50;20.68;;;;;;;3.90;67.07;99133.88;2118207;91;25771;-80
2021/01/21 05:01:53;;;;;;;36.83;23.83;;;;;;;3.94;67.06;99135.71;2562967;76;34498;-79
2021/01/21 05:05:16;;;;;;;39.63;21.68;;;;;;;4.01;66.97;99140.22;2548338;77;25713;-79
2021/01/21 05:08:53;;;;;;;39.95;20.37;;;;;;;4.01;66.90;99141.09;2548408;77;25730;-79
2021/01/21 05:12:17;;;;;;;35.88;21.15;;;;;;;3.98;66.89;99134.58;2509567;77;25708;-79
2021/01/21 05:15:57;;;;;;;35.48;18.52;;;;;;;3.97;66.86;99140.97;2452473;80;25482;-79
2021/01/21 05:19:20;;;;;;;33.78;19.25;;;;;;;3.94;66.84;99142.16;2542423;77;25647;-79
2021/01/21 05:22:44;;;;;;;34.20;19.10;;;;;;;3.91;66.83;99136.91;2417466;80;25936;-79
2021/01/21 05:26:06;;;;;;;34.15;19.42;;;;;;;3.90;66.82;99146.77;2547526;77;25813;-80
2021/01/21 05:29:35;;;;;;;35.40;19.52;;;;;;;3.89;66.83;99152.77;2541182;77;25619;-81
2021/01/21 05:32:58;;;;;;;35.63;19.45;;;;;;;3.88;66.82;99156.15;2453253;79;25701;-80
2021/01/21 05:36:25;;;;;;;33.48;18.90;;;;;;;3.87;66.80;99146.67;2542534;77;25949;-81
2021/01/21 05:40:11;;;;;;;37.13;19.45;;;;;;;3.85;66.82;99147.93;2451891;79;25499;-80
2021/01/21 05:43:48;;;;;;;30.32;19.17;;;;;;;3.85;66.81;99154.77;2545757;77;25766;-80
2021/01/21 05:47:25;;;;;;;33.90;18.50;;;;;;;3.84;66.80;99150.03;2450285;79;25541;-78
2021/01/21 05:50:47;;;;;;;31.77;19.10;;;;;;;3.83;66.81;99154.73;2549552;77;25499;-80
2021/01/21 05:54:09;;;;;;;37.80;20.10;;;;;;;3.83;66.79;99162.88;2513972;77;25701;-80
2021/01/21 05:57:34;;;;;;;30.40;18.37;;;;;;;3.83;66.79;99164.17;2487150;77;25295;-79
2021/01/21 06:00:57;;;;;;;29.27;18.65;;;;;;;3.81;66.78;99160.23;2443467;78;25671;-79
2021/01/21 06:04:27;;;;;;;33.88;18.95;;;;;;;3.81;66.79;99160.66;2515199;78;25637;-79
2021/01/21 06:07:52;;;;;;;38.73;18.85;;;;;;;3.80;66.79;99164.94;2418493;80;25740;-77
2021/01/21 06:11:14;;;;;;;32.48;18.65;;;;;;;3.79;66.78;99163.20;2431175;80;25647;-77
2021/01/21 06:14:36;;;;;;;29.87;17.75;;;;;;;3.79;66.79;99156.76;2432336;81;25663;-79
2021/01/21 06:17:59;;;;;;;32.08;19.57;;;;;;;3.79;66.78;99178.67;2428728;81;25778;-80
2021/01/21 06:21:34;;;;;;;32.90;18.23;;;;;;;3.79;66.78;99172.22;2422443;80;25619;-80
2021/01/21 06:25:06;;;;;;;32.90;18.30;;;;;;;3.80;66.77;99173.97;2430009;80;25679;-77
2021/01/21 06:28:29;;;;;;;31.87;19.48;;;;;;;3.79;66.76;99165.36;2431638;80;25693;-78
2021/01/21 06:31:51;;;;;;;32.78;17.90;;;;;;;3.83;66.75;99179.64;2432955;80;25666;-80
2021/01/21 06:35:23;;;;;;;30.05;17.87;;;;;;;3.84;66.74;99178.37;2431628;81;25716;-77
2021/01/21 06:38:47;;;;;;;33.08;19.42;;;;;;;3.84;66.73;99182.25;2432184;80;25660;-80
2021/01/21 06:42:12;;;;;;;27.25;16.90;;;;;;;3.86;66.72;99180.61;2432644;80;25727;-80
2021/01/21 06:45:36;;;;;;;29.55;17.60;;;;;;;3.90;66.69;99185.02;2432655;81;25595;-76
2021/01/21 06:48:57;;;;;;;32.58;17.65;;;;;;;3.92;66.68;99190.25;2432890;80;25418;-78
2021/01/21 06:52:26;;;;;;;33.90;18.98;;;;;;;3.95;66.64;99175.74;2433036;80;25641;-80
2021/01/21 06:55:54;;;;;;;30.35;16.90;;;;;;;3.98;66.62;99172.36;2430704;81;25795;-78
2021/01/21 06:59:16;;;;;;;31.48;18.27;;;;;;;4.03;66.57;99183.70;2432669;80;25678;-80
2021/01/21 07:02:54;;;;;;;28.42;18.55;;;;;;;4.08;66.54;99189.86;2437658;80;25698;-80
2021/01/21 07:06:16;;;;;;;33.88;18.30;;;;;;;4.12;66.49;99182.70;2438895;81;26281;-79
2021/01/21 07:09:47;;;;;;;33.02;17.73;;;;;;;4.17;66.44;99184.98;2440907;81;25638;-78
2021/01/21 07:13:24;;;;;;;28.15;17.32;;;;;;;4.21;66.38;99191.97;2417247;81;25418;-78
2021/01/21 07:16:49;;;;;;;32.70;18.57;;;;;;;4.24;66.34;99192.07;2475905;79;25708;-81
2021/01/21 07:20:11;;;;;;;26.55;17.65;;;;;;;4.28;66.31;99187.88;2475875;79;25552;-79
2021/01/21 07:23:56;;;;;;;27.55;16.70;;;;;;;4.31;66.24;99187.97;2473783;79;25676;-81
2021/01/21 07:27:28;;;;;;;24.35;16.75;;;;;;;4.35;66.19;99182.48;2476035;79;25685;-79
2021/01/21 07:30:57;;;;;;;29.52;18.35;;;;;;;4.40;66.15;99186.09;2471670;79;25673;-77
2021/01/21 07:34:32;;;;;;;29.45;18.60;;;;;;;4.44;66.08;99187.91;2451200;78;25684;-77
2021/01/21 07:37:55;;;;;;;27.95;17.50;;;;;;;4.48;66.04;99194.48;2501763;77;25654;-78
2021/01/21 07:42:12;;;;;;;27.10;17.20;;;;;;;4.54;65.99;99179.60;2491647;77;25670;-79
2021/01/21 07:57:00;;;;;;;29.93;17.80;;;;;;;4.90;65.64;99176.30;2547578;77;26062;-79
2021/01/21 08:00:44;;;;;;;32.33;19.40;;;;;;;4.92;65.58;99167.73;2496831;78;25655;-80
2021/01/21 08:04:07;;;;;;;30.15;17.30;;;;;;;5.02;65.50;99169.27;2408210;81;25681;-80
2021/01/21 08:07:57;;;;;;;25.72;17.25;;;;;;;5.13;65.39;99166.16;2409485;80;25662;-79
2021/01/21 08:11:27;;;;;;;34.27;17.92;;;;;;;5.23;65.28;99154.73;2366146;83;25747;-81
2021/01/21 08:14:50;;;;;;;26.68;16.62;;;;;;;5.35;65.17;99161.52;2408973;81;25582;-79
2021/01/21 08:18:16;;;;;;;28.62;18.17;;;;;;;5.48;65.02;99165.28;2413142;80;25671;-79
2021/01/21 08:22:37;;;;;;;30.12;18.32;;;;;;;5.62;64.92;99163.89;2410018;80;26114;-80
2021/01/21 08:25:58;;;;;;;26.55;17.15;;;;;;;5.80;64.77;99150.08;2366148;83;25760;-79
2021/01/21 08:29:45;;;;;;;29.57;18.37;;;;;;;6.28;64.47;99155.06;2360894;80;25930;-79
2021/01/21 08:33:28;;;;;;;24.07;17.00;;;;;;;6.49;63.99;99149.02;2435607;80;26113;-80
2021/01/21 08:36:52;;;;;;;30.62;18.95;;;;;;;6.69;63.75;99153.30;2378183;81;25863;-78
2021/01/21 08:40:32;;;;;;;30.30;18.35;;;;;;;6.93;63.47;99150.72;2398492;81;26162;-78
2021/01/21 08:44:28;;;;;;;29.70;17.48;;;;;;;7.45;63.20;99153.78;2392358;81;25926;-79
2021/01/21 08:48:00;;;;;;;25.40;17.85;;;;;;;8.24;62.51;99149.34;2391298;81;25787;-79
2021/01/21 08:52:14;;;;;;;27.42;17.02;;;;;;;9.01;61.80;99144.64;2392426;81;25971;-79
2021/01/21 08:55:56;;;;;;;24.07;17.65;;;;;;;10.87;61.09;99161.91;2401020;81;25713;-80
2021/01/21 08:59:29;;;;;;;25.90;18.50;;;;;;;13.32;58.58;99145.30;2403896;81;25619;-78
2021/01/21 09:03:18;;;;;;;31.12;19.10;;;;;;;15.34;55.44;99146.52;2411418;81;25753;-79
2021/01/21 09:06:42;;;;;;;25.50;18.60;;;;;;;16.95;52.58;99142.70;2399737;81;25641;-78
2021/01/21 09:10:09;;;;;;;28.92;18.95;;;;;;;18.40;49.61;99160.63;2374893;83;25793;-78
2021/01/21 09:13:32;;;;;;;25.68;19.05;;;;;;;19.53;47.38;99162.52;2377379;83;26276;-80
2021/01/21 09:16:55;;;;;;;25.10;18.17;;;;;;;20.57;45.51;99170.03;2376137;83;25835;-77
2021/01/21 09:20:37;;;;;;;24.15;18.48;;;;;;;21.57;43.47;99172.39;2372707;83;25710;-77
2021/01/21 09:24:06;;;;;;;24.32;18.17;;;;;;;22.46;41.86;99175.27;2374115;81;25789;-77
2021/01/21 09:27:39;;;;;;;20.50;16.05;;;;;;;23.32;39.77;99177.53;2375722;81;26290;-78
2021/01/21 09:31:01;;;;;;;24.60;17.32;;;;;;;23.98;38.50;99181.43;2404487;81;26007;-79
2021/01/21 09:34:23;;;;;;;18.98;15.83;;;;;;;24.60;36.87;99170.66;2407276;81;25719;-78
2021/01/21 09:41:59;;;;;;;17.48;14.78;;;;;;;24.83;28.40;99191.23;2350533;82;26314;-85
2021/01/21 09:45:32;;;;;;;16.93;13.38;;;;;;;21.94;30.77;99173.52;2365759;82;25816;-84
2021/01/21 09:49:05;;;;;;;16.60;12.37;;;;;;;20.83;30.28;99169.55;2364903;81;25678;-85
2021/01/21 09:52:28;;;;;;;15.98;13.30;;;;;;;20.07;31.84;99158.11;2365253;82;25958;-83
2021/01/21 09:56:02;;;;;;;15.85;13.32;;;;;;;20.13;32.56;99163.66;2367378;82;25758;-84
2021/01/21 09:59:23;;;;;;;16.10;12.80;;;;;;;19.21;31.94;99148.16;2368419;82;25651;-84
2021/01/21 10:02:57;;;;;;;16.25;14.03;;;;;;;18.39;32.60;99150.54;2346805;82;25814;-84
2021/01/21 10:06:39;;;;;;;19.12;13.08;;;;;;;18.15;33.77;99131.41;2336046;82;25965;-83
2021/01/21 10:10:19;;;;;;;16.45;12.53;;;;;;;17.38;33.40;99125.45;2368549;82;25845;-83
2021/01/21 10:13:40;;;;;;;19.35;13.90;;;;;;;16.58;34.31;99130.30;2344626;82;26002;-83
2021/01/21 10:17:30;;;;;;;20.72;13.40;;;;;;;15.91;35.62;99125.03;2359299;83;25769;-83
2021/01/21 10:21:17;;;;;;;19.75;13.65;;;;;;;16.07;35.76;99132.20;2384046;82;25642;-83
2021/01/21 10:24:39;;;;;;;17.67;14.20;;;;;;;16.03;35.65;99125.68;2380929;81;25905;-82
2021/01/21 10:29:02;;;;;;;17.07;13.22;;;;;;;16.26;36.11;99128.30;2410518;79;26063;-83
2021/01/21 10:32:36;;;;;;;17.45;12.73;;;;;;;16.42;35.34;99130.19;2404779;81;25743;-83
2021/01/21 10:36:39;;;;;;;20.10;14.00;;;;;;;15.98;36.39;99114.37;2367319;82;26215;-84
2021/01/21 11:05:35;;;;;;;22.27;15.40;;;;;;;16.93;36.16;99107.63;2434520;79;26388;-82
2021/01/21 11:08:57;;;;;;;21.23;15.48;;;;;;;16.70;35.64;99095.80;2394845;81;25967;-82
2021/01/21 11:12:59;;;;;;;18.52;14.53;;;;;;;16.53;35.80;99103.20;2344179;83;25849;-86
2021/01/21 11:16:21;;;;;;;22.98;14.90;;;;;;;16.43;36.58;99087.19;2377661;81;25772;-82
2021/01/21 11:20:10;;;;;;;22.15;15.55;;;;;;;15.97;36.15;99078.92;2391020;81;25752;-81
2021/01/21 11:23:39;;;;;;;23.02;15.20;;;;;;;15.28;36.82;99072.22;2386646;81;25710;-80
2021/01/21 11:27:01;;;;;;;18.95;14.90;;;;;;;14.83;37.40;99072.05;2388790;81;25755;-80
2021/01/21 11:35:24;;;;;;;18.52;14.65;;;;;;;14.16;38.68;99058.05;2211697;87;26035;-82
2021/01/21 11:54:04;;;;;;;21.52;16.65;;;;;;;13.41;40.04;99076.73;2397246;77;25496;-82
2021/01/21 11:57:26;;;;;;;24.87;16.57;;;;;;;13.24;40.48;99072.09;2369387;80;26060;-83
2021/01/21 12:24:02;;;;;;;26.20;16.75;;;;;;;14.78;39.67;99045.01;2061485;92;26272;-85
2021/01/21 12:43:01;;;;;;;25.62;17.00;;;;;;;14.15;39.75;99048.02;2221531;87;26064;-82
2021/01/21 12:46:58;;;;;;;20.45;14.80;;;;;;;13.93;40.03;99043.91;2506212;77;31127;-80
2021/01/21 12:50:58;;;;;;;24.23;17.07;;;;;;;13.70;40.30;99040.22;2344581;81;25914;-84
2021/01/21 12:54:22;;;;;;;27.60;16.42;;;;;;;13.53;40.81;99039.53;2337225;81;25822;-96
2021/01/21 12:57:49;;;;;;;20.37;14.43;;;;;;;13.51;40.97;99030.84;2302731;83;25658;-81
2021/01/21 13:01:11;;;;;;;25.43;15.55;;;;;;;13.28;41.12;99027.13;2359416;82;25311;-78
2021/01/21 13:04:44;;;;;;;25.55;14.85;;;;;;;13.34;41.53;99020.53;2576324;76;30671;-80
2021/01/21 13:08:18;;;;;;;21.33;13.40;;;;;;;13.22;41.47;99030.63;2535819;77;25832;-83
2021/01/21 13:11:49;;;;;;;17.35;11.53;;;;;;;12.92;41.76;99034.36;2448432;80;25971;-83
2021/01/21 13:15:20;;;;;;;21.82;13.10;;;;;;;12.58;41.97;98976.20;2417421;81;25882;-83
2021/01/21 13:18:41;;;;;;;18.12;13.00;;;;;;;12.53;42.45;99029.39;2455528;80;25862;-82
2021/01/21 13:22:04;;;;;;;26.27;14.85;;;;;;;12.24;42.88;99032.59;2424676;80;25740;-81
2021/01/21 13:25:26;;;;;;;25.27;15.58;;;;;;;12.08;43.22;99029.17;2471823;78;25774;-84
2021/01/21 13:28:56;;;;;;;21.05;14.83;;;;;;;11.91;43.51;99024.45;2479731;79;25971;-86
2021/01/21 13:32:20;;;;;;;22.42;15.23;;;;;;;11.74;43.76;99029.25;2469512;78;26040;-79
2021/01/21 13:35:57;;;;;;;21.15;15.28;;;;;;;11.48;44.10;99027.17;2446012;80;26217;-88
2021/01/21 13:39:25;;;;;;;25.80;14.53;;;;;;;11.24;44.50;99026.77;2462920;80;25695;-79
2021/01/21 13:42:58;;;;;;;16.07;12.03;;;;;;;11.23;45.84;99015.88;2498968;78;25576;-83
2021/01/21 13:46:58;;;;;;;21.62;13.85;;;;;;;11.53;45.61;99013.66;2491345;78;25668;-88
2021/01/21 13:50:21;;;;;;;21.65;12.50;;;;;;;11.83;45.41;99012.70;2446221;78;25714;-85
2021/01/21 13:53:58;;;;;;;19.20;12.45;;;;;;;12.20;46.69;99011.28;2435358;79;25800;-83
2021/01/21 13:57:19;;;;;;;20.77;13.30;;;;;;;12.47;45.76;98995.89;2435368;80;25708;-80
2021/01/21 14:00:53;;;;;;;21.17;15.15;;;;;;;12.68;45.30;98996.17;2429860;80;25680;-86
2021/01/21 14:04:20;;;;;;;24.27;15.08;;;;;;;12.78;44.92;98988.69;2417828;79;26057;-85
2021/01/21 14:07:41;;;;;;;25.52;15.90;;;;;;;12.81;44.68;98981.27;2351610;83;25926;-79
2021/01/21 14:11:03;;;;;;;21.40;15.28;;;;;;;12.74;44.55;98980.01;2375767;82;25789;-78
2021/01/21 14:14:24;;;;;;;23.50;15.85;;;;;;;12.63;44.38;98983.16;2377740;83;25866;-83
2021/01/21 14:21:50;;;;;;;25.85;14.98;;;;;;;12.42;45.03;98988.50;2575227;75;30740;-82
2021/01/21 14:25:24;;;;;;;21.40;14.73;;;;;;;12.23;45.00;98988.63;2546021;76;25781;-83
2021/01/21 14:28:47;;;;;;;20.52;15.45;;;;;;;12.09;45.37;98985.22;2450318;78;26442;-79
2021/01/21 14:32:21;;;;;;;22.75;15.13;;;;;;;11.93;45.63;98989.63;2476143;77;26457;-81
2021/01/21 14:35:43;;;;;;;21.80;15.35;;;;;;;11.77;45.96;98990.53;2486818;77;25731;-80
2021/01/21 14:39:06;;;;;;;21.97;14.75;;;;;;;11.61;46.11;98985.82;2492067;77;25823;-82
2021/01/21 14:42:28;;;;;;;21.52;15.28;;;;;;;11.47;46.62;98978.44;2517213;77;25707;-79
2021/01/21 14:45:49;;;;;;;23.30;15.55;;;;;;;11.31;46.62;98983.70;2487127;77;25678;-81
2021/01/21 14:50:08;;;;;;;24.10;16.42;;;;;;;11.16;46.84;98981.55;2464834;77;26014;-82
2021/01/21 14:53:30;;;;;;;26.30;16.32;;;;;;;11.01;47.15;98983.31;2436210;78;25866;-79
2021/01/21 14:56:52;;;;;;;23.67;16.02;;;;;;;10.81;47.48;98988.52;2468316;78;25695;-79
2021/01/21 15:00:16;;;;;;;24.45;15.75;;;;;;;10.66;47.65;98981.98;2471928;77;25601;-80
2021/01/21 15:03:37;;;;;;;25.10;16.67;;;;;;;10.53;47.88;98972.41;2476360;76;25828;-82
2021/01/21 15:07:20;;;;;;;23.40;15.32;;;;;;;10.40;48.07;98962.44;2271819;85;26542;-80
2021/01/21 15:10:42;;;;;;;25.90;15.85;;;;;;;10.27;48.31;98973.26;2283516;85;26451;-81
2021/01/21 15:14:04;;;;;;;24.72;16.37;;;;;;;10.16;48.37;98971.04;2285478;84;25908;-84
2021/01/21 15:17:26;;;;;;;20.57;14.15;;;;;;;10.09;48.50;98973.16;2283731;82;25750;-80
2021/01/21 15:20:51;;;;;;;25.48;15.28;;;;;;;10.02;48.67;98971.41;2296814;85;25490;-78
2021/01/21 15:24:20;;;;;;;21.62;16.10;;;;;;;9.93;48.84;98978.34;2292743;84;25695;-78
2021/01/21 15:27:41;;;;;;;24.90;16.95;;;;;;;9.83;48.93;98985.67;2286708;85;25652;-79
2021/01/21 15:31:03;;;;;;;26.27;16.42;;;;;;;9.77;49.16;98995.19;2377045;79;26015;-79
2021/01/21 15:34:31;;;;;;;30.95;17.27;;;;;;;9.68;49.30;98996.86;2464271;79;25820;-80
2021/01/21 15:37:52;;;;;;;26.68;17.50;;;;;;;9.60;49.47;99001.17;2456917;79;25669;-80
2021/01/21 15:41:14;;;;;;;25.25;17.17;;;;;;;9.53;49.76;98998.10;2449491;79;25812;-79
2021/01/21 15:44:42;;;;;;;24.98;16.52;;;;;;;9.46;49.71;98993.30;2454228;79;25426;-80
2021/01/21 15:48:12;;;;;;;28.40;17.95;;;;;;;9.37;49.80;98994.53;2435315;79;26152;-79
2021/01/21 15:51:35;;;;;;;;;;;;;;;9.32;50.08;98988.88;2442625;79;25708;-78
2021/01/21 15:55:06;;;;;;;27.65;18.20;;;;;;;9.25;50.41;98997.07;2460121;79;25995;-80
2021/01/21 15:58:41;;;;;;;31.35;18.75;;;;;;;9.16;50.42;98984.00;2444147;77;26139;-79
2021/01/21 16:02:18;;;;;;;24.98;18.65;;;;;;;9.10;50.50;98987.42;2449365;79;26018;-79
2021/01/21 16:06:00;;;;;;;31.05;19.10;;;;;;;9.05;50.77;98998.23;2455146;79;25692;-79
2021/01/21 16:09:33;;;;;;;30.30;20.25;;;;;;;8.98;50.75;98997.31;2445252;79;25714;-79
2021/01/21 16:13:11;;;;;;;36.48;21.30;;;;;;;8.94;50.94;98999.45;2421970;79;26243;-79
2021/01/21 16:16:39;;;;;;;30.43;19.42;;;;;;;8.88;51.02;98998.10;2433486;79;26194;-79
2021/01/21 16:20:33;;;;;;;33.65;19.40;;;;;;;8.84;51.29;99004.53;2434010;79;25771;-78
2021/01/21 16:24:45;;;;;;;31.95;19.92;;;;;;;8.78;51.38;98999.31;2242467;86;26041;-80
2021/01/21 16:28:17;;;;;;;34.13;20.62;;;;;;;8.71;51.47;99008.34;2259119;84;25969;-78
2021/01/21 16:31:57;;;;;;;42.20;21.12;;;;;;;8.68;51.60;99004.85;2205073;88;25620;-79
2021/01/21 16:35:19;;;;;;;36.42;21.77;;;;;;;8.63;51.86;99000.03;2254900;85;26402;-79
2021/01/21 16:38:40;;;;;;;35.85;20.90;;;;;;;8.59;51.82;98999.13;2235293;87;25904;-79
2021/01/21 16:46:58;;;;;;;37.33;21.87;;;;;;;8.48;52.04;98987.34;2259290;82;25703;-79
2021/01/21 16:54:51;;;;;;;36.83;21.30;;;;;;;8.36;52.37;98992.38;2445838;78;26102;-79
2021/01/21 16:58:13;;;;;;;39.95;21.62;;;;;;;8.30;52.71;98987.11;2444352;79;25614;-79
2021/01/21 17:01:44;;;;;;;30.85;19.55;;;;;;;8.26;52.72;98984.92;2447365;79;26329;-79
2021/01/21 17:05:08;;;;;;;31.62;20.32;;;;;;;8.23;52.70;98987.91;2442515;79;25511;-79
2021/01/21 17:08:30;;;;;;;40.20;21.50;;;;;;;8.20;52.90;98996.96;2439703;79;25882;-79
2021/01/21 17:12:33;;;;;;;32.90;20.48;;;;;;;8.16;53.04;98999.08;2453950;79;25763;-79
2021/01/21 17:16:38;;;;;;;34.23;19.98;;;;;;;8.11;53.07;98995.16;2363535;82;26110;-78
2021/01/21 17:23:57;;;;;;;;;;;;;;;8.02;53.40;98999.80;2377822;81;25792;-79
2021/01/21 17:28:11;;;;;;;38.23;23.73;;;;;;;8.00;53.63;98992.88;2316820;83;26035;-79
2021/01/21 17:39:56;;;;;;;37.28;21.07;;;;;;;7.87;53.72;98968.94;2238847;85;25635;-79
2021/01/21 17:44:15;;;;;;;37.27;21.60;;;;;;;7.88;53.99;98977.15;2581828;76;25553;-80
2021/01/21 17:48:28;;;;;;;39.27;22.13;;;;;;;7.80;54.02;98987.02;2537186;76;26012;-81
2021/01/21 17:51:59;;;;;;;37.93;21.60;;;;;;;7.77;54.14;98990.86;2452450;79;25690;-78
2021/01/21 17:55:30;;;;;;;37.85;22.15;;;;;;;7.73;54.20;98976.55;2489534;78;25569;-80
2021/01/21 17:58:56;;;;;;;38.88;21.97;;;;;;;7.69;54.30;98989.01;2505235;78;25560;-78
2021/01/21 18:07:01;;;;;;;38.63;23.07;;;;;;;7.64;54.42;98979.89;2475932;78;25667;-87
2021/01/21 18:11:05;;;;;;;37.13;22.27;;;;;;;7.59;54.49;98976.34;2424059;78;25547;-90
2021/01/21 18:14:54;;;;;;;37.08;22.70;;;;;;;7.56;54.52;98974.61;2354238;82;25694;-79
2021/01/21 18:18:30;;;;;;;41.77;22.30;;;;;;;7.53;54.64;98981.48;2216700;87;25731;-80
2021/01/21 18:49:03;;;;;;;42.48;25.00;;;;;;;7.16;55.29;98964.55;2304690;83;26231;-86
2021/01/21 18:52:28;;;;;;;42.90;25.37;;;;;;;7.12;55.38;98951.08;2307407;83;26221;-84
2021/01/21 18:56:07;;;;;;;45.10;26.45;;;;;;;7.09;55.50;98955.38;2324028;83;26236;-88
2021/01/21 19:00:10;;;;;;;42.70;24.15;;;;;;;7.07;55.64;98949.29;2347050;82;26184;-82